Islander Express — WCJ6211 — position and weather

sailwx.info

Track history (hours):
 
Tides and Currents Weather Stations Pressure Air Temp Water Temp Dewpoint Dewpoint Depression Visibility Wind Speed Wind Dir Waves Ship Positions

Islander Express

Owner: RGWT INC, Long Beach, CA. More information available from US FCC via Universal Licensing System and Coast Guard Vessel Documentation Center.

Last reported at 2017-Sep-19 17:00 UTC. Time now 2017-Sep-19 17:02 UTC.
Position N 33°26' W 117°45'.

Length 37 m; draft 1.6 m.

Type: High speed craft. MMSI: 366943970.

Date/timePositionNaut miles runAvg speedWind from/ knotsBaromVisibWave heightAir tempDewpointWater temp
2017-Sep-19 17:00N 33°26' W 117°45'3 6.2
2017-Sep-19 16:30N 33°28' W 117°42'0 0.0
2017-Sep-19 16:01N 33°28' W 117°42'0 0.0
2017-Sep-19 15:30N 33°28' W 117°42'0 0.0
2017-Sep-19 03:13N 33°28' W 117°42'0 0.0
2017-Sep-19 03:00N 33°28' W 117°42'0 0.0
2017-Sep-19 02:31N 33°28' W 117°42'0 0.0
2017-Sep-19 02:00N 33°28' W 117°42'1122.0
2017-Sep-19 01:31N 33°25' W 117°54'2114.2
2017-Sep-19 00:02N 33°21' W 118°19'1126.2
2017-Sep-18 23:36N 33°23' W 118°06'326.3
2017-Sep-18 23:30N 33°23' W 118°03'1326.1
2017-Sep-18 23:01N 33°26' W 117°48'510.7
2017-Sep-18 22:30N 33°28' W 117°42'0 0.0
2017-Sep-18 22:00N 33°28' W 117°42'0 0.0
2017-Sep-18 21:30N 33°28' W 117°42'0 0.0
2017-Sep-18 21:00N 33°28' W 117°42'0 0.0
2017-Sep-18 20:30N 33°28' W 117°42'2 4.6
2017-Sep-18 20:01N 33°26' W 117°44'1326.5
2017-Sep-18 19:31N 33°24' W 117°59'1713.4
2017-Sep-18 18:16N 33°21' W 118°19'618.9
2017-Sep-18 17:58N 33°22' W 118°12'1123.6
2017-Sep-18 17:30N 33°24' W 117°60'1325.6
2017-Sep-18 17:01N 33°27' W 117°45'3 5.4
2017-Sep-18 16:31N 33°28' W 117°42'0 0.0
2017-Sep-18 16:00N 33°28' W 117°42'0 0.1
2017-Sep-18 15:30N 33°28' W 117°41'0 0.1
2017-Sep-18 15:00N 33°28' W 117°42'0 0.0
2017-Sep-18 04:17N 33°28' W 117°42'0 0.0
2017-Sep-18 04:00N 33°28' W 117°42'0 0.0
2017-Sep-18 03:30N 33°28' W 117°42'0 0.9
2017-Sep-18 03:01N 33°27' W 117°42'1326.3
2017-Sep-18 02:30N 33°24' W 117°57'6 3.3
2017-Sep-18 00:36N 33°23' W 118°04'327.0
2017-Sep-18 00:30N 33°24' W 118°01'1326.7
2017-Sep-18 00:00N 33°26' W 117°45'4 7.1
2017-Sep-17 23:30N 33°28' W 117°42'0 0.0
2017-Sep-17 23:00N 33°28' W 117°42'0 0.0
2017-Sep-17 22:30N 33°28' W 117°42'816.4
2017-Sep-17 22:01N 33°25' W 117°51'2326.8
2017-Sep-17 21:09N 33°21' W 118°18'1 0.8
2017-Sep-17 20:15N 33°21' W 118°19'925.9
2017-Sep-17 19:54N 33°22' W 118°08'1026.1
2017-Sep-17 19:31N 33°24' W 117°56'1325.2
2017-Sep-17 19:01N 33°27' W 117°41'0 0.6
2017-Sep-17 18:31N 33°28' W 117°42'3 6.6
2017-Sep-17 18:01N 33°26' W 117°45'1326.0
2017-Sep-17 17:30N 33°23' W 118°00'1510.5
2017-Sep-17 16:02N 33°21' W 118°18'1025.9
2017-Sep-17 15:39N 33°23' W 118°07'425.7
2017-Sep-17 15:30N 33°24' W 118°02'1325.5
2017-Sep-17 15:00N 33°26' W 117°47'510.1
2017-Sep-17 14:31N 33°28' W 117°42'0 0.1
2017-Sep-17 14:00N 33°28' W 117°41'0 0.1
2017-Sep-17 13:30N 33°28' W 117°41'0 0.0
2017-Sep-17 03:15N 33°28' W 117°42'2 8.8
2017-Sep-17 03:01N 33°27' W 117°44'1326.2
2017-Sep-17 02:31N 33°24' W 117°59'1711.6
2017-Sep-17 01:05N 33°21' W 118°19'825.7
2017-Sep-17 00:47N 33°22' W 118°10'725.6
2017-Sep-17 00:30N 33°23' W 118°01'1225.0
2017-Sep-17 00:01N 33°26' W 117°47'5 9.5
2017-Sep-16 23:30N 33°28' W 117°42'0 0.0
2017-Sep-16 23:00N 33°28' W 117°42'0 0.0
2017-Sep-16 22:30N 33°28' W 117°42'815.4
2017-Sep-16 22:01N 33°25' W 117°50'2414.1
2017-Sep-16 20:17N 33°21' W 118°19'925.7
2017-Sep-16 19:57N 33°23' W 118°09'1125.5
2017-Sep-16 19:31N 33°25' W 117°55'1223.7
2017-Sep-16 19:00N 33°27' W 117°42'0 0.5
2017-Sep-16 18:30N 33°28' W 117°42'2 4.4
2017-Sep-16 18:01N 33°26' W 117°44'1326.6
2017-Sep-16 17:31N 33°23' W 117°59'1712.8
2017-Sep-16 16:11N 33°21' W 118°19'923.3
2017-Sep-16 15:47N 33°23' W 118°08'725.1
2017-Sep-16 15:31N 33°24' W 118°00'1224.4
2017-Sep-16 15:00N 33°26' W 117°46'4 7.3
2017-Sep-16 14:30N 33°28' W 117°42'0 0.0
2017-Sep-16 03:22N 33°28' W 117°42'1 1.6
2017-Sep-16 03:00N 33°27' W 117°42'1326.0
2017-Sep-16 02:30N 33°24' W 117°57'8 4.2
2017-Sep-16 00:39N 33°23' W 118°06'426.2
2017-Sep-16 00:30N 33°23' W 118°02'1325.2
2017-Sep-16 00:01N 33°26' W 117°47'510.0
2017-Sep-15 23:30N 33°28' W 117°42'0 0.0
2017-Sep-15 23:00N 33°28' W 117°42'0 0.0
2017-Sep-15 22:30N 33°28' W 117°42'815.1
2017-Sep-15 22:01N 33°25' W 117°50'1526.1
2017-Sep-15 21:26N 33°22' W 118°08'9 7.5
2017-Sep-15 20:14N 33°21' W 118°19'925.8
2017-Sep-15 19:53N 33°22' W 118°08'1025.5
2017-Sep-15 19:30N 33°24' W 117°56'1325.4
2017-Sep-15 19:00N 33°27' W 117°42'0 0.9
2017-Sep-15 18:30N 33°28' W 117°42'2 4.1
2017-Sep-15 18:01N 33°27' W 117°44'1326.7
2017-Sep-15 17:31N 33°24' W 117°60'1712.0
2017-Sep-15 16:08N 33°21' W 118°19'925.3
2017-Sep-15 15:47N 33°22' W 118°09'725.3
2017-Sep-15 15:30N 33°24' W 118°01'1325.1
2017-Sep-15 15:01N 33°26' W 117°46'4 7.8
2017-Sep-15 14:30N 33°28' W 117°42'0 0.0
2017-Sep-15 14:01N 33°28' W 117°42'0 0.1
2017-Sep-15 13:31N 33°28' W 117°41'0 0.0
2017-Sep-15 02:19N 33°28' W 117°42'0 0.7
2017-Sep-15 02:00N 33°27' W 117°42'1223.9
2017-Sep-15 01:30N 33°23' W 117°55'1925.6
2017-Sep-15 00:46N 33°21' W 118°18'2 3.9
2017-Sep-15 00:22N 33°21' W 118°19'1 1.4
2017-Sep-14 23:58N 33°21' W 118°19'2 3.3
2017-Sep-14 23:31N 33°19' W 118°18'0 0.0
2017-Sep-14 19:18N 33°19' W 118°18'0 0.0
2017-Sep-14 19:00N 33°19' W 118°18'2 2.6
2017-Sep-14 18:13N 33°21' W 118°19'622.9
2017-Sep-14 17:56N 33°22' W 118°12'1125.3
2017-Sep-14 17:30N 33°24' W 117°59'1325.0
2017-Sep-14 17:00N 33°27' W 117°44'3 5.2
2017-Sep-14 16:30N 33°28' W 117°42'0 0.0
2017-Sep-14 02:20N 33°28' W 117°42'0 0.2
2017-Sep-14 02:00N 33°28' W 117°41'1122.2
2017-Sep-14 01:30N 33°25' W 117°54'2025.8
2017-Sep-14 00:43N 33°21' W 118°18'1 2.8
2017-Sep-14 00:22N 33°21' W 118°19'1 1.7
2017-Sep-13 23:53N 33°21' W 118°20'0 0.0
2017-Sep-13 23:20N 33°21' W 118°20'0 0.0
2017-Sep-13 22:08N 33°21' W 118°20'0 0.0
2017-Sep-13 21:46N 33°21' W 118°20'0 0.0
2017-Sep-13 21:30N 33°21' W 118°20'0 0.0
2017-Sep-13 21:00N 33°21' W 118°20'0 0.0
2017-Sep-13 18:53N 33°21' W 118°20'1 1.3
2017-Sep-13 18:11N 33°21' W 118°19'725.3
2017-Sep-13 17:54N 33°22' W 118°11'1025.1
2017-Sep-13 17:30N 33°24' W 117°59'1225.0
2017-Sep-13 17:01N 33°27' W 117°44'2 5.0
2017-Sep-13 16:31N 33°28' W 117°42'0 0.0
2017-Sep-13 16:00N 33°28' W 117°42'0 0.0
2017-Sep-13 15:31N 33°28' W 117°42'0 0.0
2017-Sep-13 02:28N 33°28' W 117°42'0 1.0
2017-Sep-13 02:01N 33°27' W 117°42'1224.8
2017-Sep-13 01:30N 33°23' W 117°56'1524.5
2017-Sep-13 00:54N 33°21' W 118°13'512.2
2017-Sep-13 00:29N 33°21' W 118°19'0 0.3
2017-Sep-13 00:00N 33°21' W 118°19'2 3.4
2017-Sep-12 23:27N 33°19' W 118°18'0 0.1
2017-Sep-12 20:33N 33°19' W 118°18'0 0.0
2017-Sep-12 20:25N 33°19' W 118°18'0 0.0
2017-Sep-12 20:00N 33°19' W 118°18'2 3.5
2017-Sep-12 19:27N 33°21' W 118°19'715.3
2017-Sep-12 19:01N 33°27' W 118°17'1326.7
2017-Sep-12 18:31N 33°40' W 118°12'611.9
2017-Sep-12 18:00N 33°46' W 118°12'0 0.0
2017-Sep-12 17:30N 33°46' W 118°12'0 0.0
2017-Sep-12 17:00N 33°46' W 118°12'0 0.0
2017-Sep-12 16:30N 33°46' W 118°12'0 0.0
2017-Sep-12 16:00N 33°46' W 118°12'0 0.0
2017-Sep-12 15:31N 33°46' W 118°12'0 0.0
2017-Sep-12 15:00N 33°46' W 118°12'0 0.0
2017-Sep-12 14:29N 33°46' W 118°12'0 0.0
2017-Sep-12 13:57N 33°46' W 118°12'0 0.0
2017-Sep-12 13:30N 33°46' W 118°12'0 0.0
2017-Sep-12 13:00N 33°46' W 118°12'0 0.1
2017-Sep-12 12:30N 33°46' W 118°12'0 0.1
2017-Sep-12 12:00N 33°46' W 118°12'0 0.0
2017-Sep-12 11:30N 33°46' W 118°12'0 0.0
2017-Sep-12 02:49N 33°46' W 118°12'0 0.1
2017-Sep-12 02:30N 33°46' W 118°12'0 0.0
2017-Sep-12 02:01N 33°46' W 118°12'0 0.0
2017-Sep-12 01:31N 33°46' W 118°12'2 3.5
2017-Sep-12 01:01N 33°44' W 118°11'1326.4
2017-Sep-12 00:31N 33°32' W 118°15'1223.2
2017-Sep-12 00:00N 33°21' W 118°19'1 1.2
2017-Sep-11 23:30N 33°21' W 118°20'0 0.0
2017-Sep-11 23:00N 33°21' W 118°20'0 0.0
2017-Sep-11 22:31N 33°21' W 118°20'0 0.0
2017-Sep-11 22:01N 33°21' W 118°20'0 0.0
2017-Sep-11 21:30N 33°21' W 118°20'0 0.0
2017-Sep-11 21:00N 33°21' W 118°20'0 0.0
2017-Sep-11 20:30N 33°21' W 118°20'0 0.2
2017-Sep-11 20:00N 33°21' W 118°20'1 0.9
2017-Sep-11 19:25N 33°21' W 118°19'921.6
2017-Sep-11 19:01N 33°29' W 118°16'1326.6
2017-Sep-11 18:31N 33°42' W 118°12'4 7.8
2017-Sep-11 18:00N 33°46' W 118°12'0 0.0
2017-Sep-11 17:29N 33°46' W 118°12'0 0.0
2017-Sep-11 17:00N 33°46' W 118°12'0 0.0
2017-Sep-11 16:30N 33°46' W 118°12'0 0.0
2017-Sep-11 16:00N 33°46' W 118°12'0 0.0
2017-Sep-11 15:30N 33°46' W 118°12'0 0.0
2017-Sep-11 14:58N 33°46' W 118°12'0 0.0
2017-Sep-11 14:30N 33°46' W 118°12'0 0.0
2017-Sep-11 14:00N 33°46' W 118°12'0 0.0
2017-Sep-11 13:25N 33°46' W 118°12'0 0.0
2017-Sep-11 13:00N 33°46' W 118°12'0 0.0
2017-Sep-11 12:30N 33°46' W 118°12'0 0.0
2017-Sep-11 12:00N 33°46' W 118°12'0 0.0
2017-Sep-11 11:30N 33°46' W 118°12'0 0.0
2017-Sep-11 06:24N 33°46' W 118°12'0 0.0
2017-Sep-11 06:01N 33°46' W 118°12'0 0.0
2017-Sep-11 05:31N 33°46' W 118°12'0 0.1
2017-Sep-11 05:00N 33°46' W 118°12'1019.4
2017-Sep-11 04:30N 33°36' W 118°12'1326.4
2017-Sep-11 04:01N 33°24' W 118°19'3 6.7
2017-Sep-11 03:30N 33°21' W 118°19'4 8.1
2017-Sep-11 03:01N 33°25' W 118°18'1326.7
2017-Sep-11 02:30N 33°37' W 118°13'916.9
2017-Sep-11 02:00N 33°46' W 118°12'0 0.0
2017-Sep-11 01:29N 33°46' W 118°12'3 5.4
2017-Sep-11 01:00N 33°43' W 118°11'1326.2
2017-Sep-11 00:31N 33°31' W 118°15'1121.3
2017-Sep-11 00:00N 33°21' W 118°19'0 0.0
2017-Sep-10 23:30N 33°21' W 118°19'1224.3
2017-Sep-10 23:01N 33°32' W 118°15'1326.0
2017-Sep-10 22:30N 33°45' W 118°11'1 2.5
2017-Sep-10 22:00N 33°46' W 118°12'0 0.0
2017-Sep-10 21:30N 33°46' W 118°12'1 2.2
2017-Sep-10 21:00N 33°45' W 118°11'1326.0
2017-Sep-10 20:31N 33°32' W 118°15'1224.7
2017-Sep-10 20:00N 33°21' W 118°19'0 0.1
2017-Sep-10 19:30N 33°21' W 118°19'4 7.8
2017-Sep-10 19:01N 33°24' W 118°17'1326.7
2017-Sep-10 18:31N 33°37' W 118°13'917.5
2017-Sep-10 18:00N 33°46' W 118°12'0 0.0
2017-Sep-10 17:30N 33°46' W 118°12'0 0.0
2017-Sep-10 17:00N 33°46' W 118°12'0 0.0
2017-Sep-10 16:30N 33°46' W 118°12'0 0.0
2017-Sep-10 16:00N 33°46' W 118°12'0 0.0
2017-Sep-10 15:30N 33°46' W 118°12'0 0.0
2017-Sep-10 15:00N 33°46' W 118°12'0 0.0
2017-Sep-10 14:00N 33°46' W 118°12'0 0.0
2017-Sep-10 13:30N 33°46' W 118°12'0 0.0
2017-Sep-10 13:00N 33°46' W 118°12'0 0.0
2017-Sep-10 12:30N 33°46' W 118°12'0 0.0
2017-Sep-10 12:00N 33°46' W 118°12'0 0.0
2017-Sep-10 11:30N 33°46' W 118°12'0 0.0
2017-Sep-10 05:18N 33°46' W 118°12'0 0.5
2017-Sep-10 05:00N 33°46' W 118°12'918.6
2017-Sep-10 04:30N 33°36' W 118°13'1325.4
2017-Sep-10 04:00N 33°25' W 118°18'4 8.0
2017-Sep-10 03:30N 33°21' W 118°19'3 6.7
2017-Sep-10 03:01N 33°24' W 118°18'1326.9
2017-Sep-10 02:31N 33°37' W 118°14'917.8
2017-Sep-10 02:00N 33°46' W 118°12'0 0.3
2017-Sep-10 01:30N 33°46' W 118°12'4 7.2
2017-Sep-10 01:01N 33°42' W 118°11'1325.2
2017-Sep-10 00:30N 33°30' W 118°15'1020.3
2017-Sep-10 00:00N 33°21' W 118°19'0 0.0
2017-Sep-09 23:29N 33°21' W 118°19'1123.5
2017-Sep-09 23:00N 33°32' W 118°15'1326.7
2017-Sep-09 22:31N 33°44' W 118°11'2 3.7
2017-Sep-09 22:01N 33°46' W 118°12'0 0.0
2017-Sep-09 21:31N 33°46' W 118°12'1 1.7
2017-Sep-09 21:00N 33°45' W 118°11'1326.7
2017-Sep-09 20:31N 33°32' W 118°14'1224.3
2017-Sep-09 20:00N 33°21' W 118°19'0 0.1
2017-Sep-09 19:30N 33°21' W 118°19'510.4
2017-Sep-09 19:01N 33°25' W 118°17'1326.6
2017-Sep-09 18:30N 33°38' W 118°13'714.9
2017-Sep-09 18:00N 33°46' W 118°12'0 0.0
2017-Sep-09 17:30N 33°46' W 118°12'1 1.3
2017-Sep-09 17:01N 33°45' W 118°11'  
Track history (hours):
 
Tides and Currents Weather Stations Pressure Air Temp Water Temp Dewpoint Dewpoint Depression Visibility Wind Speed Wind Dir Waves Ship Positions

Islander Express

Owner: RGWT INC, Long Beach, CA. More information available from US FCC via Universal Licensing System and Coast Guard Vessel Documentation Center.

Last reported at 2017-Sep-19 17:00 UTC. Time now 2017-Sep-19 17:02 UTC.
Position N 33°26' W 117°45'.

Length 37 m; draft 1.6 m.

Type: High speed craft. MMSI: 366943970.

Date/timePositionNaut miles runAvg speedWind from/ knotsBaromVisibWave heightAir tempDewpointWater temp
2017-Sep-19 17:00N 33°26' W 117°45'3 6.2
2017-Sep-19 16:30N 33°28' W 117°42'0 0.0
2017-Sep-19 16:01N 33°28' W 117°42'0 0.0
2017-Sep-19 15:30N 33°28' W 117°42'0 0.0
2017-Sep-19 03:13N 33°28' W 117°42'0 0.0
2017-Sep-19 03:00N 33°28' W 117°42'0 0.0
2017-Sep-19 02:31N 33°28' W 117°42'0 0.0
2017-Sep-19 02:00N 33°28' W 117°42'1122.0
2017-Sep-19 01:31N 33°25' W 117°54'2114.2
2017-Sep-19 00:02N 33°21' W 118°19'1126.2
2017-Sep-18 23:36N 33°23' W 118°06'326.3
2017-Sep-18 23:30N 33°23' W 118°03'1326.1
2017-Sep-18 23:01N 33°26' W 117°48'510.7
2017-Sep-18 22:30N 33°28' W 117°42'0 0.0
2017-Sep-18 22:00N 33°28' W 117°42'0 0.0
2017-Sep-18 21:30N 33°28' W 117°42'0 0.0
2017-Sep-18 21:00N 33°28' W 117°42'0 0.0
2017-Sep-18 20:30N 33°28' W 117°42'2 4.6
2017-Sep-18 20:01N 33°26' W 117°44'1326.5
2017-Sep-18 19:31N 33°24' W 117°59'1713.4
2017-Sep-18 18:16N 33°21' W 118°19'618.9
2017-Sep-18 17:58N 33°22' W 118°12'1123.6
2017-Sep-18 17:30N 33°24' W 117°60'1325.6
2017-Sep-18 17:01N 33°27' W 117°45'3 5.4
2017-Sep-18 16:31N 33°28' W 117°42'0 0.0
2017-Sep-18 16:00N 33°28' W 117°42'0 0.1
2017-Sep-18 15:30N 33°28' W 117°41'0 0.1
2017-Sep-18 15:00N 33°28' W 117°42'0 0.0
2017-Sep-18 04:17N 33°28' W 117°42'0 0.0
2017-Sep-18 04:00N 33°28' W 117°42'0 0.0
2017-Sep-18 03:30N 33°28' W 117°42'0 0.9
2017-Sep-18 03:01N 33°27' W 117°42'1326.3
2017-Sep-18 02:30N 33°24' W 117°57'6 3.3
2017-Sep-18 00:36N 33°23' W 118°04'327.0
2017-Sep-18 00:30N 33°24' W 118°01'1326.7
2017-Sep-18 00:00N 33°26' W 117°45'4 7.1
2017-Sep-17 23:30N 33°28' W 117°42'0 0.0
2017-Sep-17 23:00N 33°28' W 117°42'0 0.0
2017-Sep-17 22:30N 33°28' W 117°42'816.4
2017-Sep-17 22:01N 33°25' W 117°51'2326.8
2017-Sep-17 21:09N 33°21' W 118°18'1 0.8
2017-Sep-17 20:15N 33°21' W 118°19'925.9
2017-Sep-17 19:54N 33°22' W 118°08'1026.1
2017-Sep-17 19:31N 33°24' W 117°56'1325.2
2017-Sep-17 19:01N 33°27' W 117°41'0 0.6
2017-Sep-17 18:31N 33°28' W 117°42'3 6.6
2017-Sep-17 18:01N 33°26' W 117°45'1326.0
2017-Sep-17 17:30N 33°23' W 118°00'1510.5
2017-Sep-17 16:02N 33°21' W 118°18'1025.9
2017-Sep-17 15:39N 33°23' W 118°07'425.7
2017-Sep-17 15:30N 33°24' W 118°02'1325.5
2017-Sep-17 15:00N 33°26' W 117°47'510.1
2017-Sep-17 14:31N 33°28' W 117°42'0 0.1
2017-Sep-17 14:00N 33°28' W 117°41'0 0.1
2017-Sep-17 13:30N 33°28' W 117°41'0 0.0
2017-Sep-17 03:15N 33°28' W 117°42'2 8.8
2017-Sep-17 03:01N 33°27' W 117°44'1326.2
2017-Sep-17 02:31N 33°24' W 117°59'1711.6
2017-Sep-17 01:05N 33°21' W 118°19'825.7
2017-Sep-17 00:47N 33°22' W 118°10'725.6
2017-Sep-17 00:30N 33°23' W 118°01'1225.0
2017-Sep-17 00:01N 33°26' W 117°47'5 9.5
2017-Sep-16 23:30N 33°28' W 117°42'0 0.0
2017-Sep-16 23:00N 33°28' W 117°42'0 0.0
2017-Sep-16 22:30N 33°28' W 117°42'815.4
2017-Sep-16 22:01N 33°25' W 117°50'2414.1
2017-Sep-16 20:17N 33°21' W 118°19'925.7
2017-Sep-16 19:57N 33°23' W 118°09'1125.5
2017-Sep-16 19:31N 33°25' W 117°55'1223.7
2017-Sep-16 19:00N 33°27' W 117°42'0 0.5
2017-Sep-16 18:30N 33°28' W 117°42'2 4.4
2017-Sep-16 18:01N 33°26' W 117°44'1326.6
2017-Sep-16 17:31N 33°23' W 117°59'1712.8
2017-Sep-16 16:11N 33°21' W 118°19'923.3
2017-Sep-16 15:47N 33°23' W 118°08'725.1
2017-Sep-16 15:31N 33°24' W 118°00'1224.4
2017-Sep-16 15:00N 33°26' W 117°46'4 7.3
2017-Sep-16 14:30N 33°28' W 117°42'0 0.0
2017-Sep-16 03:22N 33°28' W 117°42'1 1.6
2017-Sep-16 03:00N 33°27' W 117°42'1326.0
2017-Sep-16 02:30N 33°24' W 117°57'8 4.2
2017-Sep-16 00:39N 33°23' W 118°06'426.2
2017-Sep-16 00:30N 33°23' W 118°02'1325.2
2017-Sep-16 00:01N 33°26' W 117°47'510.0
2017-Sep-15 23:30N 33°28' W 117°42'0 0.0
2017-Sep-15 23:00N 33°28' W 117°42'0 0.0
2017-Sep-15 22:30N 33°28' W 117°42'815.1
2017-Sep-15 22:01N 33°25' W 117°50'1526.1
2017-Sep-15 21:26N 33°22' W 118°08'9 7.5
2017-Sep-15 20:14N 33°21' W 118°19'925.8
2017-Sep-15 19:53N 33°22' W 118°08'1025.5
2017-Sep-15 19:30N 33°24' W 117°56'1325.4
2017-Sep-15 19:00N 33°27' W 117°42'0 0.9
2017-Sep-15 18:30N 33°28' W 117°42'2 4.1
2017-Sep-15 18:01N 33°27' W 117°44'1326.7
2017-Sep-15 17:31N 33°24' W 117°60'1712.0
2017-Sep-15 16:08N 33°21' W 118°19'925.3
2017-Sep-15 15:47N 33°22' W 118°09'725.3
2017-Sep-15 15:30N 33°24' W 118°01'1325.1
2017-Sep-15 15:01N 33°26' W 117°46'4 7.8
2017-Sep-15 14:30N 33°28' W 117°42'0 0.0
2017-Sep-15 14:01N 33°28' W 117°42'0 0.1
2017-Sep-15 13:31N 33°28' W 117°41'0 0.0
2017-Sep-15 02:19N 33°28' W 117°42'0 0.7
2017-Sep-15 02:00N 33°27' W 117°42'1223.9
2017-Sep-15 01:30N 33°23' W 117°55'1925.6
2017-Sep-15 00:46N 33°21' W 118°18'2 3.9
2017-Sep-15 00:22N 33°21' W 118°19'1 1.4
2017-Sep-14 23:58N 33°21' W 118°19'2 3.3
2017-Sep-14 23:31N 33°19' W 118°18'0 0.0
2017-Sep-14 19:18N 33°19' W 118°18'0 0.0
2017-Sep-14 19:00N 33°19' W 118°18'2 2.6
2017-Sep-14 18:13N 33°21' W 118°19'622.9
2017-Sep-14 17:56N 33°22' W 118°12'1125.3
2017-Sep-14 17:30N 33°24' W 117°59'1325.0
2017-Sep-14 17:00N 33°27' W 117°44'3 5.2
2017-Sep-14 16:30N 33°28' W 117°42'0 0.0
2017-Sep-14 02:20N 33°28' W 117°42'0 0.2
2017-Sep-14 02:00N 33°28' W 117°41'1122.2
2017-Sep-14 01:30N 33°25' W 117°54'2025.8
2017-Sep-14 00:43N 33°21' W 118°18'1 2.8
2017-Sep-14 00:22N 33°21' W 118°19'1 1.7
2017-Sep-13 23:53N 33°21' W 118°20'0 0.0
2017-Sep-13 23:20N 33°21' W 118°20'0 0.0
2017-Sep-13 22:08N 33°21' W 118°20'0 0.0
2017-Sep-13 21:46N 33°21' W 118°20'0 0.0
2017-Sep-13 21:30N 33°21' W 118°20'0 0.0
2017-Sep-13 21:00N 33°21' W 118°20'0 0.0
2017-Sep-13 18:53N 33°21' W 118°20'1 1.3
2017-Sep-13 18:11N 33°21' W 118°19'725.3
2017-Sep-13 17:54N 33°22' W 118°11'1025.1
2017-Sep-13 17:30N 33°24' W 117°59'1225.0
2017-Sep-13 17:01N 33°27' W 117°44'2 5.0
2017-Sep-13 16:31N 33°28' W 117°42'0 0.0
2017-Sep-13 16:00N 33°28' W 117°42'0 0.0
2017-Sep-13 15:31N 33°28' W 117°42'0 0.0
2017-Sep-13 02:28N 33°28' W 117°42'0 1.0
2017-Sep-13 02:01N 33°27' W 117°42'1224.8
2017-Sep-13 01:30N 33°23' W 117°56'1524.5
2017-Sep-13 00:54N 33°21' W 118°13'512.2
2017-Sep-13 00:29N 33°21' W 118°19'0 0.3
2017-Sep-13 00:00N 33°21' W 118°19'2 3.4
2017-Sep-12 23:27N 33°19' W 118°18'0 0.1
2017-Sep-12 20:33N 33°19' W 118°18'0 0.0
2017-Sep-12 20:25N 33°19' W 118°18'0 0.0
2017-Sep-12 20:00N 33°19' W 118°18'2 3.5
2017-Sep-12 19:27N 33°21' W 118°19'715.3
2017-Sep-12 19:01N 33°27' W 118°17'1326.7
2017-Sep-12 18:31N 33°40' W 118°12'611.9
2017-Sep-12 18:00N 33°46' W 118°12'0 0.0
2017-Sep-12 17:30N 33°46' W 118°12'0 0.0
2017-Sep-12 17:00N 33°46' W 118°12'0 0.0
2017-Sep-12 16:30N 33°46' W 118°12'0 0.0
2017-Sep-12 16:00N 33°46' W 118°12'0 0.0
2017-Sep-12 15:31N 33°46' W 118°12'0 0.0
2017-Sep-12 15:00N 33°46' W 118°12'0 0.0
2017-Sep-12 14:29N 33°46' W 118°12'0 0.0
2017-Sep-12 13:57N 33°46' W 118°12'0 0.0
2017-Sep-12 13:30N 33°46' W 118°12'0 0.0
2017-Sep-12 13:00N 33°46' W 118°12'0 0.1
2017-Sep-12 12:30N 33°46' W 118°12'0 0.1
2017-Sep-12 12:00N 33°46' W 118°12'0 0.0
2017-Sep-12 11:30N 33°46' W 118°12'0 0.0
2017-Sep-12 02:49N 33°46' W 118°12'0 0.1
2017-Sep-12 02:30N 33°46' W 118°12'0 0.0
2017-Sep-12 02:01N 33°46' W 118°12'0 0.0
2017-Sep-12 01:31N 33°46' W 118°12'2 3.5
2017-Sep-12 01:01N 33°44' W 118°11'1326.4
2017-Sep-12 00:31N 33°32' W 118°15'1223.2
2017-Sep-12 00:00N 33°21' W 118°19'1 1.2
2017-Sep-11 23:30N 33°21' W 118°20'0 0.0
2017-Sep-11 23:00N 33°21' W 118°20'0 0.0
2017-Sep-11 22:31N 33°21' W 118°20'0 0.0
2017-Sep-11 22:01N 33°21' W 118°20'0 0.0
2017-Sep-11 21:30N 33°21' W 118°20'0 0.0
2017-Sep-11 21:00N 33°21' W 118°20'0 0.0
2017-Sep-11 20:30N 33°21' W 118°20'0 0.2
2017-Sep-11 20:00N 33°21' W 118°20'1 0.9
2017-Sep-11 19:25N 33°21' W 118°19'921.6
2017-Sep-11 19:01N 33°29' W 118°16'1326.6
2017-Sep-11 18:31N 33°42' W 118°12'4 7.8
2017-Sep-11 18:00N 33°46' W 118°12'0 0.0
2017-Sep-11 17:29N 33°46' W 118°12'0 0.0
2017-Sep-11 17:00N 33°46' W 118°12'0 0.0
2017-Sep-11 16:30N 33°46' W 118°12'0 0.0
2017-Sep-11 16:00N 33°46' W 118°12'0 0.0
2017-Sep-11 15:30N 33°46' W 118°12'0 0.0
2017-Sep-11 14:58N 33°46' W 118°12'0 0.0
2017-Sep-11 14:30N 33°46' W 118°12'0 0.0
2017-Sep-11 14:00N 33°46' W 118°12'0 0.0
2017-Sep-11 13:25N 33°46' W 118°12'0 0.0
2017-Sep-11 13:00N 33°46' W 118°12'0 0.0
2017-Sep-11 12:30N 33°46' W 118°12'0 0.0
2017-Sep-11 12:00N 33°46' W 118°12'0 0.0
2017-Sep-11 11:30N 33°46' W 118°12'0 0.0
2017-Sep-11 06:24N 33°46' W 118°12'0 0.0
2017-Sep-11 06:01N 33°46' W 118°12'0 0.0
2017-Sep-11 05:31N 33°46' W 118°12'0 0.1
2017-Sep-11 05:00N 33°46' W 118°12'1019.4
2017-Sep-11 04:30N 33°36' W 118°12'1326.4
2017-Sep-11 04:01N 33°24' W 118°19'3 6.7
2017-Sep-11 03:30N 33°21' W 118°19'4 8.1
2017-Sep-11 03:01N 33°25' W 118°18'1326.7
2017-Sep-11 02:30N 33°37' W 118°13'916.9
2017-Sep-11 02:00N 33°46' W 118°12'0 0.0
2017-Sep-11 01:29N 33°46' W 118°12'3 5.4
2017-Sep-11 01:00N 33°43' W 118°11'1326.2
2017-Sep-11 00:31N 33°31' W 118°15'1121.3
2017-Sep-11 00:00N 33°21' W 118°19'0 0.0
2017-Sep-10 23:30N 33°21' W 118°19'1224.3
2017-Sep-10 23:01N 33°32' W 118°15'1326.0
2017-Sep-10 22:30N 33°45' W 118°11'1 2.5
2017-Sep-10 22:00N 33°46' W 118°12'0 0.0
2017-Sep-10 21:30N 33°46' W 118°12'1 2.2
2017-Sep-10 21:00N 33°45' W 118°11'1326.0
2017-Sep-10 20:31N 33°32' W 118°15'1224.7
2017-Sep-10 20:00N 33°21' W 118°19'0 0.1
2017-Sep-10 19:30N 33°21' W 118°19'4 7.8
2017-Sep-10 19:01N 33°24' W 118°17'1326.7
2017-Sep-10 18:31N 33°37' W 118°13'917.5
2017-Sep-10 18:00N 33°46' W 118°12'0 0.0
2017-Sep-10 17:30N 33°46' W 118°12'0 0.0
2017-Sep-10 17:00N 33°46' W 118°12'0 0.0
2017-Sep-10 16:30N 33°46' W 118°12'0 0.0
2017-Sep-10 16:00N 33°46' W 118°12'0 0.0
2017-Sep-10 15:30N 33°46' W 118°12'0 0.0
2017-Sep-10 15:00N 33°46' W 118°12'0 0.0
2017-Sep-10 14:00N 33°46' W 118°12'0 0.0
2017-Sep-10 13:30N 33°46' W 118°12'0 0.0
2017-Sep-10 13:00N 33°46' W 118°12'0 0.0
2017-Sep-10 12:30N 33°46' W 118°12'0 0.0
2017-Sep-10 12:00N 33°46' W 118°12'0 0.0
2017-Sep-10 11:30N 33°46' W 118°12'0 0.0
2017-Sep-10 05:18N 33°46' W 118°12'0 0.5
2017-Sep-10 05:00N 33°46' W 118°12'918.6
2017-Sep-10 04:30N 33°36' W 118°13'1325.4
2017-Sep-10 04:00N 33°25' W 118°18'4 8.0
2017-Sep-10 03:30N 33°21' W 118°19'3 6.7
2017-Sep-10 03:01N 33°24' W 118°18'1326.9
2017-Sep-10 02:31N 33°37' W 118°14'917.8
2017-Sep-10 02:00N 33°46' W 118°12'0 0.3
2017-Sep-10 01:30N 33°46' W 118°12'4 7.2
2017-Sep-10 01:01N 33°42' W 118°11'1325.2
2017-Sep-10 00:30N 33°30' W 118°15'1020.3
2017-Sep-10 00:00N 33°21' W 118°19'0 0.0
2017-Sep-09 23:29N 33°21' W 118°19'1123.5
2017-Sep-09 23:00N 33°32' W 118°15'1326.7
2017-Sep-09 22:31N 33°44' W 118°11'2 3.7
2017-Sep-09 22:01N 33°46' W 118°12'0 0.0
2017-Sep-09 21:31N 33°46' W 118°12'1 1.7
2017-Sep-09 21:00N 33°45' W 118°11'1326.7
2017-Sep-09 20:31N 33°32' W 118°14'1224.3
2017-Sep-09 20:00N 33°21' W 118°19'0 0.1
2017-Sep-09 19:30N 33°21' W 118°19'510.4
2017-Sep-09 19:01N 33°25' W 118°17'1326.6
2017-Sep-09 18:30N 33°38' W 118°13'714.9
2017-Sep-09 18:00N 33°46' W 118°12'0 0.0
2017-Sep-09 17:30N 33°46' W 118°12'1 1.3
2017-Sep-09 17:01N 33°45' W 118°11'  

Dump ship's entire track history